Time;durP1;ratioP1;P1;durP2;ratioP2;P2;SDS_P1;SDS_P2;PMS_P1;PMS_P2;Temp;Humidity;BMP_temperature;BMP_pressure;BME280_temperature;BME280_humidity;BME280_pressure;Samples;Min_cycle;Max_cycle;Signal;HPM_P1;HPM_P2
2022/06/27 00:02:23;;;;;;;3.42;2.00;;;19.50;99.90;;;;;;5043968;28;20044;-51
2022/06/27 00:04:49;;;;;;;1.95;1.73;;;19.50;99.90;;;;;;5048284;28;20017;-46
2022/06/27 00:07:15;;;;;;;4.13;2.20;;;19.50;99.90;;;;;;5047253;28;20498;-51
2022/06/27 00:09:41;;;;;;;2.42;1.90;;;19.40;99.90;;;;;;5050723;28;20100;-51
2022/06/27 00:12:08;;;;;;;2.35;1.90;;;19.40;99.90;;;;;;5047280;28;20036;-51
2022/06/27 00:14:35;;;;;;;2.70;1.50;;;19.40;99.90;;;;;;5049848;28;20395;-47
2022/06/27 00:17:01;;;;;;;2.00;1.90;;;19.40;99.90;;;;;;5046169;28;20623;-46
2022/06/27 00:19:28;;;;;;;2.90;1.73;;;19.30;99.90;;;;;;5049077;28;20029;-50
2022/06/27 00:21:54;;;;;;;2.03;1.80;;;19.30;99.90;;;;;;5042086;28;20032;-51
2022/06/27 00:24:19;;;;;;;3.33;2.08;;;19.30;99.90;;;;;;5048048;28;20017;-47
2022/06/27 00:26:45;;;;;;;2.55;2.15;;;19.30;99.90;;;;;;5041836;28;20052;-49
2022/06/27 00:29:11;;;;;;;3.47;2.08;;;19.30;99.90;;;;;;5046633;28;20398;-47
2022/06/27 00:31:36;;;;;;;2.33;2.08;;;19.30;99.90;;;;;;5049521;28;20111;-48
2022/06/27 00:34:02;;;;;;;1.95;1.65;;;19.20;99.90;;;;;;5045758;28;20075;-47
2022/06/27 00:36:28;;;;;;;2.40;2.13;;;19.20;99.90;;;;;;5048369;28;20021;-47
2022/06/27 00:38:54;;;;;;;2.53;2.15;;;19.20;99.90;;;;;;5050576;28;20136;-49
2022/06/27 00:41:19;;;;;;;2.45;2.25;;;19.20;99.90;;;;;;5047296;28;20100;-49
2022/06/27 00:43:46;;;;;;;2.40;2.20;;;19.20;99.90;;;;;;5040112;28;20083;-50
2022/06/27 00:46:12;;;;;;;3.70;2.67;;;19.20;99.90;;;;;;5037364;28;20029;-47
2022/06/27 00:48:38;;;;;;;2.83;2.22;;;19.20;99.90;;;;;;5044849;28;20134;-50
2022/06/27 00:51:05;;;;;;;2.55;2.35;;;19.20;99.90;;;;;;5040449;28;20438;-49
2022/06/27 00:53:32;;;;;;;2.13;2.03;;;19.20;99.90;;;;;;5041320;28;20049;-51
2022/06/27 00:55:58;;;;;;;2.20;2.00;;;19.20;99.90;;;;;;5039224;28;20068;-51
2022/06/27 00:58:23;;;;;;;3.75;2.40;;;19.20;99.90;;;;;;5043167;28;20775;-49
2022/06/27 01:00:49;;;;;;;2.72;2.17;;;19.20;99.90;;;;;;5024108;28;20069;-49
2022/06/27 01:03:14;;;;;;;3.40;2.42;;;19.20;99.90;;;;;;5043753;28;20033;-49
2022/06/27 01:05:51;;;;;;;2.90;2.55;;;19.20;99.90;;;;;;5038524;28;20403;-48
2022/06/27 01:08:18;;;;;;;3.55;2.70;;;19.20;99.90;;;;;;5031825;28;20029;-47
2022/06/27 01:10:44;;;;;;;2.53;2.33;;;19.10;99.90;;;;;;5039207;28;20028;-47
2022/06/27 01:13:09;;;;;;;2.50;2.20;;;19.10;99.90;;;;;;5041325;28;20025;-48
2022/06/27 01:15:35;;;;;;;2.70;2.50;;;19.10;99.90;;;;;;5042361;28;20484;-48
2022/06/27 01:18:01;;;;;;;3.25;2.20;;;19.10;99.90;;;;;;5040213;28;20049;-50
2022/06/27 01:20:26;;;;;;;3.65;2.45;;;19.10;99.90;;;;;;5044535;28;20048;-50
2022/06/27 01:22:52;;;;;;;2.53;2.33;;;19.10;99.90;;;;;;5038764;28;20168;-51
2022/06/27 01:25:20;;;;;;;2.90;2.20;;;19.10;99.90;;;;;;5042270;28;20021;-50
2022/06/27 01:27:46;;;;;;;4.97;2.95;;;19.10;99.90;;;;;;5040051;28;20032;-49
2022/06/27 01:30:12;;;;;;;3.42;2.25;;;19.10;99.90;;;;;;5041802;28;20402;-50
2022/06/27 01:32:38;;;;;;;3.03;2.42;;;19.10;99.90;;;;;;5041976;28;20083;-47
2022/06/27 01:35:04;;;;;;;4.00;2.55;;;19.10;99.90;;;;;;5040943;28;20021;-51
2022/06/27 01:37:30;;;;;;;2.55;2.13;;;19.10;99.90;;;;;;5044292;28;20164;-49
2022/06/27 01:39:57;;;;;;;3.47;2.30;;;19.10;99.90;;;;;;5039501;28;20026;-47
2022/06/27 01:42:23;;;;;;;2.80;2.38;;;19.10;99.90;;;;;;5041669;28;20447;-48
2022/06/27 01:44:49;;;;;;;2.75;2.13;;;19.10;99.90;;;;;;5039503;28;20022;-47
2022/06/27 01:47:14;;;;;;;3.83;2.47;;;19.10;99.90;;;;;;5026654;28;20032;-49
2022/06/27 01:49:40;;;;;;;3.83;2.58;;;19.10;99.90;;;;;;5041033;28;20029;-49
2022/06/27 01:52:07;;;;;;;3.42;3.13;;;19.10;99.90;;;;;;5039877;28;20025;-48
2022/06/27 01:54:34;;;;;;;3.80;2.90;;;19.00;99.90;;;;;;5041667;28;20100;-46
2022/06/27 01:57:00;;;;;;;3.10;2.80;;;19.00;99.90;;;;;;5037707;28;20021;-49
2022/06/27 01:59:28;;;;;;;5.25;2.60;;;19.00;99.90;;;;;;5041791;28;20032;-48
2022/06/27 02:01:55;;;;;;;3.75;2.90;;;19.00;99.90;;;;;;5040064;28;20101;-47
2022/06/27 02:04:21;;;;;;;3.33;2.10;;;19.00;99.90;;;;;;5041561;28;20029;-48
2022/06/27 02:06:48;;;;;;;2.42;2.22;;;19.00;99.90;;;;;;5041277;28;20112;-50
2022/06/27 02:09:15;;;;;;;2.30;2.10;;;19.00;99.90;;;;;;5041434;28;20017;-47
2022/06/27 02:11:43;;;;;;;2.25;2.05;;;18.90;99.90;;;;;;5040423;28;20074;-49
2022/06/27 02:14:08;;;;;;;1.98;1.88;;;18.90;99.90;;;;;;5040849;28;20013;-47
2022/06/27 02:16:34;;;;;;;4.05;2.22;;;18.90;99.90;;;;;;5041158;28;20086;-47
2022/06/27 02:19:00;;;;;;;2.40;2.20;;;18.90;99.90;;;;;;5039995;28;20160;-49
2022/06/27 02:21:29;;;;;;;2.53;2.17;;;18.80;99.90;;;;;;5041072;28;20532;-49
2022/06/27 02:23:55;;;;;;;3.20;2.05;;;18.80;99.90;;;;;;5040593;28;20104;-47
2022/06/27 02:26:24;;;;;;;4.88;2.03;;;18.80;99.90;;;;;;5041316;28;20558;-47
2022/06/27 02:28:52;;;;;;;2.30;2.10;;;18.80;99.90;;;;;;5038807;28;20483;-49
2022/06/27 02:31:18;;;;;;;2.20;2.00;;;18.70;99.90;;;;;;5044050;28;20063;-49
2022/06/27 02:33:46;;;;;;;4.38;1.92;;;18.70;99.90;;;;;;5048001;28;20439;-52
2022/06/27 02:36:17;;;;;;;2.25;2.15;;;18.70;99.90;;;;;;5045018;28;20033;-52
2022/06/27 02:38:44;;;;;;;2.38;1.88;;;18.60;99.90;;;;;;5049556;28;20424;-53
2022/06/27 02:41:14;;;;;;;1.95;1.60;;;18.60;99.90;;;;;;5044430;28;20090;-50
2022/06/27 02:43:44;;;;;;;2.40;1.98;;;18.50;99.90;;;;;;5046765;28;20033;-48
2022/06/27 02:46:09;;;;;;;3.08;2.13;;;18.50;99.90;;;;;;5043593;28;20091;-50
2022/06/27 02:48:36;;;;;;;2.33;2.13;;;18.40;99.90;;;;;;5046018;28;20041;-49
2022/06/27 02:51:08;;;;;;;2.47;2.28;;;18.30;99.90;;;;;;5048334;28;20025;-50
2022/06/27 02:53:42;;;;;;;3.50;2.33;;;18.00;99.90;;;;;;5044583;28;20037;-50
2022/06/27 02:56:10;;;;;;;9.10;2.85;;;17.90;99.90;;;;;;5047102;28;20029;-49
2022/06/27 02:59:02;;;;;;;4.57;2.22;;;17.70;99.90;;;;;;5044049;28;20090;-48
2022/06/27 03:01:30;;;;;;;4.13;2.45;;;17.60;99.90;;;;;;5013473;28;20037;-53
2022/06/27 03:03:58;;;;;;;3.03;2.60;;;17.50;99.90;;;;;;5051773;28;20090;-46
2022/06/27 03:06:24;;;;;;;3.38;2.78;;;17.50;99.90;;;;;;5049435;28;20025;-52
2022/06/27 03:08:50;;;;;;;6.53;2.72;;;17.40;99.90;;;;;;5052607;28;20075;-52
2022/06/27 03:11:18;;;;;;;3.67;2.90;;;17.30;99.90;;;;;;5045683;28;20024;-46
2022/06/27 03:13:45;;;;;;;2.83;2.58;;;17.30;99.90;;;;;;5052854;28;20095;-54
2022/06/27 03:16:12;;;;;;;2.85;2.55;;;17.30;99.90;;;;;;5044040;28;20036;-52
2022/06/27 03:18:38;;;;;;;2.55;2.35;;;17.30;99.90;;;;;;5042578;28;20033;-53
2022/06/27 03:21:03;;;;;;;3.67;2.72;;;17.30;99.90;;;;;;5050345;28;20025;-51
2022/06/27 03:23:29;;;;;;;2.60;2.28;;;17.20;99.90;;;;;;5049169;28;20025;-53
2022/06/27 03:25:55;;;;;;;3.20;2.28;;;17.20;99.90;;;;;;5051965;28;20036;-47
2022/06/27 03:28:21;;;;;;;3.30;2.25;;;17.20;99.90;;;;;;5045034;28;20029;-50
2022/06/27 03:30:47;;;;;;;1.90;1.77;;;17.10;99.90;;;;;;5052937;28;20025;-48
2022/06/27 03:33:13;;;;;;;2.90;1.98;;;17.10;99.90;;;;;;5043610;28;20025;-47
2022/06/27 03:35:39;;;;;;;4.85;2.10;;;16.90;99.90;;;;;;5046863;28;20033;-48
2022/06/27 03:38:05;;;;;;;4.43;2.22;;;16.70;99.90;;;;;;5050260;28;20142;-47
2022/06/27 03:40:30;;;;;;;3.13;1.67;;;16.60;99.90;;;;;;5048107;28;20021;-45
2022/06/27 03:42:56;;;;;;;5.78;1.90;;;16.60;99.90;;;;;;5052052;28;20025;-46
2022/06/27 03:45:22;;;;;;;3.40;1.65;;;16.50;99.90;;;;;;5048831;28;20030;-45
2022/06/27 03:47:53;;;;;;;3.63;1.90;;;16.50;99.90;;;;;;5050621;28;20163;-43
2022/06/27 03:50:20;;;;;;;4.25;2.28;;;16.60;99.90;;;;;;5035508;28;20026;-45
2022/06/27 03:52:46;;;;;;;3.40;1.95;;;16.50;99.90;;;;;;5051116;28;20380;-44
2022/06/27 03:55:12;;;;;;;3.90;2.30;;;16.50;99.90;;;;;;5047964;28;20036;-44
2022/06/27 03:57:45;;;;;;;2.83;2.22;;;16.50;99.90;;;;;;5046912;28;20033;-45
2022/06/27 04:00:11;;;;;;;4.95;2.28;;;16.40;99.90;;;;;;5052272;28;20110;-45
2022/06/27 04:02:37;;;;;;;3.03;2.08;;;16.40;99.90;;;;;;5048483;28;20107;-45
2022/06/27 04:05:03;;;;;;;2.10;1.85;;;16.40;99.90;;;;;;5051101;28;20036;-47
2022/06/27 04:07:29;;;;;;;4.30;2.08;;;16.40;99.90;;;;;;5047786;28;20029;-52
2022/06/27 04:09:56;;;;;;;3.00;2.25;;;16.40;99.90;;;;;;5050146;28;20373;-46
2022/06/27 04:12:22;;;;;;;4.60;2.60;;;16.50;99.90;;;;;;5046603;28;20029;-47
2022/06/27 04:14:47;;;;;;;3.25;2.22;;;16.50;99.90;;;;;;5048416;28;20023;-46
2022/06/27 04:17:13;;;;;;;5.05;2.58;;;16.50;99.90;;;;;;5051561;28;20052;-47
2022/06/27 04:19:38;;;;;;;4.32;2.45;;;16.50;99.90;;;;;;5048250;28;20049;-45
2022/06/27 04:22:04;;;;;;;3.92;2.45;;;16.50;99.90;;;;;;5050544;28;20024;-42
2022/06/27 04:24:30;;;;;;;4.28;2.80;;;16.40;99.90;;;;;;5047496;28;20075;-42
2022/06/27 04:26:55;;;;;;;4.50;3.03;;;16.40;99.90;;;;;;5049785;28;20391;-43
2022/06/27 04:29:21;;;;;;;4.10;2.53;;;16.40;99.90;;;;;;5046839;28;20487;-43
2022/06/27 04:31:47;;;;;;;3.95;2.83;;;16.40;99.90;;;;;;5048346;28;20017;-44
2022/06/27 04:34:13;;;;;;;4.05;2.95;;;16.40;99.90;;;;;;5051048;28;20037;-45
2022/06/27 04:36:44;;;;;;;3.72;2.90;;;16.40;99.90;;;;;;5047884;28;20415;-44
2022/06/27 04:39:13;;;;;;;3.40;3.10;;;16.40;99.90;;;;;;5050564;28;20024;-43
2022/06/27 04:41:39;;;;;;;3.35;3.05;;;16.40;99.90;;;;;;5049191;28;20066;-42
2022/06/27 04:44:04;;;;;;;3.38;2.65;;;16.50;99.90;;;;;;5051258;28;20029;-42
2022/06/27 04:46:30;;;;;;;4.45;2.80;;;16.40;99.90;;;;;;5047989;28;20072;-42
2022/06/27 04:48:56;;;;;;;6.22;3.88;;;16.40;99.90;;;;;;5041421;28;20040;-42
2022/06/27 04:51:21;;;;;;;4.75;3.40;;;16.40;99.90;;;;;;5046674;28;20471;-42
2022/06/27 04:53:48;;;;;;;6.32;3.40;;;16.40;99.90;;;;;;5049353;28;20044;-42
2022/06/27 04:56:14;;;;;;;5.25;3.75;;;16.40;99.90;;;;;;5046166;28;20017;-43
2022/06/27 04:58:40;;;;;;;4.30;3.53;;;16.40;99.90;;;;;;5048835;28;20021;-43
2022/06/27 05:01:05;;;;;;;4.65;3.65;;;16.30;99.90;;;;;;5050867;28;20029;-43
2022/06/27 05:03:31;;;;;;;6.70;3.88;;;16.30;99.90;;;;;;5047417;28;20032;-42
2022/06/27 05:05:56;;;;;;;4.80;4.40;;;16.30;99.90;;;;;;5049832;28;20479;-42
2022/06/27 05:08:22;;;;;;;7.38;3.95;;;16.30;99.90;;;;;;5042486;28;20048;-42
2022/06/27 05:10:48;;;;;;;4.18;3.78;;;16.40;99.90;;;;;;5047457;28;20174;-42
2022/06/27 05:13:13;;;;;;;4.50;3.90;;;16.40;99.90;;;;;;5044327;28;20032;-42
2022/06/27 05:15:40;;;;;;;4.72;4.25;;;16.50;99.90;;;;;;5048685;28;20431;-43
2022/06/27 05:20:33;;;;;;;5.85;3.97;;;16.50;99.90;;;;;;5019351;28;20048;-46
2022/06/27 05:23:01;;;;;;;7.07;4.68;;;16.60;99.90;;;;;;5017040;28;20018;-46
2022/06/27 05:25:27;;;;;;;5.10;4.57;;;16.70;99.90;;;;;;5021912;28;20171;-47
2022/06/27 05:27:54;;;;;;;7.57;4.82;;;16.70;99.90;;;;;;5021675;28;20532;-49
2022/06/27 05:30:20;;;;;;;6.10;3.85;;;16.80;99.90;;;;;;5022217;28;20163;-47
2022/06/27 05:32:45;;;;;;;6.03;4.82;;;16.80;99.90;;;;;;5022696;28;20108;-49
2022/06/27 05:35:11;;;;;;;8.25;5.20;;;16.90;99.90;;;;;;5019235;28;20013;-48
2022/06/27 05:37:38;;;;;;;4.78;3.70;;;16.80;99.90;;;;;;5022288;28;20457;-46
2022/06/27 05:40:06;;;;;;;6.20;4.88;;;16.90;99.90;;;;;;5020101;28;20112;-47
2022/06/27 05:42:34;;;;;;;8.10;5.47;;;17.00;99.90;;;;;;5018588;28;20033;-48
2022/06/27 05:45:01;;;;;;;7.20;5.18;;;17.10;99.90;;;;;;5024346;28;20076;-47
2022/06/27 05:47:27;;;;;;;4.63;4.22;;;17.10;99.90;;;;;;5018502;28;20112;-48
2022/06/27 05:49:53;;;;;;;7.95;6.15;;;17.30;99.90;;;;;;5007747;28;20033;-48
2022/06/27 05:52:18;;;;;;;5.97;5.40;;;17.40;99.90;;;;;;4984200;28;20030;-46
2022/06/27 05:54:45;;;;;;;5.22;4.72;;;17.60;99.90;;;;;;5025294;28;20051;-47
2022/06/27 05:57:11;;;;;;;8.77;5.15;;;17.80;99.90;;;;;;5018687;28;20057;-48
2022/06/27 05:59:37;;;;;;;5.80;4.45;;;17.90;99.90;;;;;;5018154;28;20030;-49
2022/06/27 06:02:03;;;;;;;7.00;4.80;;;18.00;99.90;;;;;;5023754;28;20029;-46
2022/06/27 06:04:30;;;;;;;5.30;4.72;;;18.00;99.90;;;;;;5017900;28;20026;-46
2022/06/27 06:06:56;;;;;;;6.00;4.95;;;18.00;99.90;;;;;;5007087;28;20377;-47
2022/06/27 06:09:22;;;;;;;8.88;5.13;;;18.00;99.90;;;;;;5018023;28;20128;-47
2022/06/27 06:11:48;;;;;;;6.10;5.40;;;17.90;99.90;;;;;;5025235;28;20017;-47
2022/06/27 06:14:19;;;;;;;5.40;4.88;;;17.90;99.90;;;;;;5012760;28;20018;-48
2022/06/27 06:16:45;;;;;;;6.60;5.93;;;17.90;99.90;;;;;;5018197;28;20411;-46
2022/06/27 06:19:11;;;;;;;7.03;5.60;;;18.00;99.90;;;;;;5023564;28;20022;-47
2022/06/27 06:21:38;;;;;;;8.48;5.75;;;18.00;99.90;;;;;;5017732;28;20052;-47
2022/06/27 06:24:05;;;;;;;5.05;4.65;;;18.00;99.90;;;;;;5024469;28;20030;-48
2022/06/27 06:26:30;;;;;;;6.63;5.63;;;18.00;99.90;;;;;;5017703;28;20034;-49
2022/06/27 06:29:01;;;;;;;5.55;5.05;;;18.00;99.90;;;;;;5007302;28;20435;-46
2022/06/27 06:31:27;;;;;;;7.05;5.90;;;18.10;99.90;;;;;;5017949;28;20546;-47
2022/06/27 06:33:53;;;;;;;7.32;6.35;;;18.00;99.90;;;;;;5018349;28;20105;-48
2022/06/27 06:36:23;;;;;;;7.80;7.10;;;18.10;99.90;;;;;;5022673;28;20018;-48
2022/06/27 06:38:51;;;;;;;6.30;5.20;;;18.10;99.90;;;;;;5017618;28;20041;-47
2022/06/27 06:41:17;;;;;;;7.95;7.22;;;18.10;99.90;;;;;;5020837;28;20022;-48
2022/06/27 06:43:44;;;;;;;6.45;5.82;;;18.20;99.90;;;;;;4995361;28;20028;-46
2022/06/27 06:46:10;;;;;;;10.77;8.18;;;18.20;99.90;;;;;;5016619;28;20044;-47
2022/06/27 06:48:37;;;;;;;8.52;7.70;;;18.30;99.90;;;;;;5020628;28;20049;-47
2022/06/27 06:51:04;;;;;;;8.85;7.32;;;18.40;99.90;;;;;;5019217;28;20393;-47
2022/06/27 06:53:29;;;;;;;8.52;7.72;;;18.40;99.90;;;;;;5020654;28;20022;-49
2022/06/27 06:55:57;;;;;;;8.23;7.43;;;18.40;99.90;;;;;;5018253;28;20096;-47
2022/06/27 06:58:24;;;;;;;8.63;7.70;;;18.40;99.90;;;;;;5022857;28;20460;-47
2022/06/27 07:00:54;;;;;;;9.32;8.18;;;18.40;99.90;;;;;;5017566;28;20476;-47
2022/06/27 07:03:20;;;;;;;7.72;6.88;;;18.50;99.90;;;;;;5006116;28;20084;-46
2022/06/27 07:05:46;;;;;;;7.50;6.75;;;18.60;99.90;;;;;;4999664;28;20021;-50
2022/06/27 07:08:12;;;;;;;9.15;8.27;;;18.70;99.90;;;;;;5020851;28;20056;-48
2022/06/27 07:10:39;;;;;;;9.43;8.55;;;18.70;99.90;;;;;;5020102;28;20030;-47
2022/06/27 07:13:06;;;;;;;9.05;8.30;;;18.70;99.90;;;;;;5019344;28;20022;-48
2022/06/27 07:15:33;;;;;;;9.48;8.50;;;18.70;99.90;;;;;;5021847;28;20045;-48
2022/06/27 07:18:00;;;;;;;8.38;7.57;;;18.80;99.90;;;;;;5018451;28;20101;-48
2022/06/27 07:20:26;;;;;;;8.93;6.95;;;18.80;99.90;;;;;;5020660;28;20037;-47
2022/06/27 07:22:52;;;;;;;8.90;6.68;;;18.80;99.90;;;;;;5017899;28;20562;-47
2022/06/27 07:25:18;;;;;;;11.90;8.98;;;18.90;99.90;;;;;;5020662;28;20057;-52
2022/06/27 07:27:45;;;;;;;10.70;9.65;;;18.90;99.90;;;;;;5019601;28;20026;-47
2022/06/27 07:30:12;;;;;;;10.02;9.05;;;18.90;99.90;;;;;;5019935;28;20483;-47
2022/06/27 07:32:40;;;;;;;15.27;9.50;;;18.90;99.90;;;;;;5021158;28;20033;-48
2022/06/27 07:35:11;;;;;;;8.40;7.65;;;18.90;99.90;;;;;;5019283;28;20025;-47
2022/06/27 07:37:49;;;;;;;9.25;8.32;;;18.80;99.90;;;;;;5019304;28;20026;-49
2022/06/27 07:40:17;;;;;;;15.55;8.98;;;18.80;99.90;;;;;;5015749;28;20041;-49
2022/06/27 07:42:43;;;;;;;11.38;9.30;;;18.70;99.90;;;;;;5019335;28;20096;-47
2022/06/27 07:45:10;;;;;;;9.82;8.93;;;18.60;99.90;;;;;;5001971;28;20053;-47
2022/06/27 07:47:36;;;;;;;10.52;8.82;;;18.60;99.90;;;;;;5021360;28;20035;-51
2022/06/27 07:50:02;;;;;;;10.13;9.23;;;18.60;99.90;;;;;;5005861;28;20026;-47
2022/06/27 07:52:28;;;;;;;10.98;9.25;;;18.60;99.90;;;;;;5023816;28;20022;-48
2022/06/27 07:54:55;;;;;;;10.75;9.30;;;18.60;99.90;;;;;;5004818;28;20456;-50
2022/06/27 07:57:21;;;;;;;10.80;9.80;;;18.50;99.90;;;;;;5005930;28;20379;-47
2022/06/27 07:59:48;;;;;;;10.90;9.82;;;18.50;99.90;;;;;;5005686;28;20021;-47
2022/06/27 08:02:13;;;;;;;11.82;10.07;;;18.40;99.90;;;;;;5023527;28;20071;-51
2022/06/27 08:04:41;;;;;;;10.63;9.52;;;18.40;99.90;;;;;;5005966;28;20030;-49
2022/06/27 08:07:07;;;;;;;9.73;8.82;;;18.30;99.90;;;;;;5004152;28;20020;-47
2022/06/27 08:09:32;;;;;;;9.52;8.60;;;18.30;99.90;;;;;;5023659;28;20037;-52
2022/06/27 08:12:00;;;;;;;13.05;9.88;;;18.30;99.90;;;;;;5015125;28;20054;-49
2022/06/27 08:14:25;;;;;;;10.77;9.48;;;18.30;99.90;;;;;;5023369;28;20018;-50
2022/06/27 08:16:52;;;;;;;8.77;7.93;;;18.30;99.90;;;;;;5005338;28;20021;-50
2022/06/27 08:19:19;;;;;;;11.93;9.45;;;18.20;99.90;;;;;;5023341;28;20060;-48
2022/06/27 08:21:45;;;;;;;11.02;8.57;;;18.20;99.90;;;;;;5023007;28;20091;-51
2022/06/27 08:24:16;;;;;;;8.90;8.10;;;18.00;99.90;;;;;;5021260;28;20021;-52
2022/06/27 08:26:44;;;;;;;11.52;8.13;;;18.10;99.90;;;;;;5023826;28;20092;-50
2022/06/27 08:29:10;;;;;;;8.75;6.63;;;18.00;99.90;;;;;;5003750;28;20048;-50
2022/06/27 08:31:37;;;;;;;11.88;9.20;;;18.10;99.90;;;;;;5022865;28;20032;-49
2022/06/27 08:34:04;;;;;;;11.02;8.50;;;18.10;99.90;;;;;;5022485;28;20112;-47
2022/06/27 08:36:35;;;;;;;10.63;9.63;;;18.10;99.90;;;;;;5005592;28;20487;-48
2022/06/27 08:39:07;;;;;;;13.13;8.75;;;17.90;99.90;;;;;;5021294;28;20053;-51
2022/06/27 08:41:33;;;;;;;10.13;8.98;;;17.90;99.90;;;;;;5023430;28;20106;-49
2022/06/27 08:44:04;;;;;;;9.40;8.43;;;17.80;99.90;;;;;;5020976;28;20025;-50
2022/06/27 08:46:30;;;;;;;11.65;9.50;;;17.80;99.90;;;;;;5023995;28;20236;-50
2022/06/27 08:48:56;;;;;;;11.23;8.40;;;17.80;99.90;;;;;;5021604;28;20116;-50
2022/06/27 08:51:23;;;;;;;8.85;7.95;;;17.80;99.90;;;;;;5022135;28;20756;-48
2022/06/27 08:53:51;;;;;;;9.98;8.98;;;17.80;99.90;;;;;;5019387;28;20591;-51
2022/06/27 08:56:18;;;;;;;11.85;9.52;;;17.80;99.90;;;;;;5008266;28;20014;-49
2022/06/27 08:58:47;;;;;;;11.45;8.88;;;17.80;99.90;;;;;;5019172;28;20053;-49
2022/06/27 09:01:24;;;;;;;10.55;9.45;;;17.80;99.90;;;;;;5027169;28;20109;-48
2022/06/27 09:04:09;;;;;;;14.63;8.88;;;17.70;99.90;;;;;;5019489;28;20021;-50
2022/06/27 09:06:54;;;;;;;14.68;9.55;;;17.70;99.90;;;;;;5022344;28;20052;-47
2022/06/27 09:09:23;;;;;;;12.27;9.70;;;17.70;99.90;;;;;;5011400;28;20032;-50
2022/06/27 09:11:49;;;;;;;10.80;9.35;;;17.70;99.90;;;;;;5020966;28;20025;-48
2022/06/27 09:14:35;;;;;;;10.95;8.80;;;17.70;99.90;;;;;;5022217;28;20028;-48
2022/06/27 09:17:04;;;;;;;10.82;9.65;;;17.70;99.90;;;;;;5021775;28;20021;-48
2022/06/27 09:19:54;;;;;;;12.98;10.23;;;17.60;99.90;;;;;;5021800;28;20034;-49
2022/06/27 09:22:23;;;;;;;11.13;9.95;;;17.60;99.90;;;;;;5008390;28;20049;-48
2022/06/27 09:25:09;;;;;;;15.43;11.20;;;17.70;99.90;;;;;;5024832;28;20026;-49
2022/06/27 09:27:46;;;;;;;14.57;11.00;;;17.70;99.90;;;;;;5017768;28;20109;-50
2022/06/27 09:30:17;;;;;;;14.20;10.98;;;17.80;99.90;;;;;;5025271;28;20061;-50
2022/06/27 09:32:43;;;;;;;13.85;11.27;;;17.80;99.90;;;;;;5018482;28;20025;-49
2022/06/27 09:35:32;;;;;;;11.63;10.48;;;17.80;99.90;;;;;;5026431;28;20034;-49
2022/06/27 09:38:07;;;;;;;13.85;9.18;;;17.90;99.90;;;;;;5018066;28;20594;-49
2022/06/27 09:40:33;;;;;;;11.20;10.05;;;17.90;99.90;;;;;;5022416;28;20051;-49
2022/06/27 09:43:00;;;;;;;16.50;10.57;;;17.90;99.90;;;;;;4999584;28;20018;-51
2022/06/27 09:45:29;;;;;;;14.85;11.90;;;17.90;99.90;;;;;;5021884;28;20029;-49
2022/06/27 09:48:01;;;;;;;10.77;9.45;;;18.00;99.90;;;;;;5020358;28;20029;-53
2022/06/27 09:50:31;;;;;;;12.82;10.45;;;18.00;99.90;;;;;;5021817;28;20057;-51
2022/06/27 09:52:59;;;;;;;13.60;10.68;;;18.10;99.90;;;;;;5023220;28;20080;-50
2022/06/27 09:55:25;;;;;;;14.07;10.85;;;18.10;99.90;;;;;;5015155;28;20018;-50
2022/06/27 09:57:52;;;;;;;15.15;11.27;;;18.20;99.90;;;;;;5021338;28;20032;-52
2022/06/27 10:00:20;;;;;;;15.30;10.73;;;18.20;99.90;;;;;;5021635;28;20516;-48
2022/06/27 10:02:46;;;;;;;13.07;10.20;;;18.30;99.90;;;;;;5021572;28;20026;-49
2022/06/27 10:05:14;;;;;;;13.20;10.13;;;18.30;99.90;;;;;;5018233;28;20036;-48
2022/06/27 10:07:43;;;;;;;17.42;11.38;;;18.40;99.90;;;;;;5022864;28;20032;-49
2022/06/27 10:10:09;;;;;;;13.60;10.85;;;18.50;99.90;;;;;;5018236;28;20080;-48
2022/06/27 10:12:36;;;;;;;12.95;10.93;;;18.60;99.90;;;;;;5022912;28;20487;-50
2022/06/27 10:15:10;;;;;;;12.45;10.45;;;18.80;99.90;;;;;;5019666;28;20032;-48
2022/06/27 10:17:45;;;;;;;11.25;9.23;;;18.90;99.90;;;;;;5019389;28;20021;-49
2022/06/27 10:20:20;;;;;;;10.57;9.38;;;18.90;99.90;;;;;;5018240;28;20519;-48
2022/06/27 10:23:03;;;;;;;10.23;9.15;;;19.00;99.90;;;;;;5017479;28;20437;-49
2022/06/27 10:25:29;;;;;;;14.20;10.32;;;19.10;99.90;;;;;;5013685;28;20515;-52
2022/06/27 10:30:48;;;;;;;15.80;11.20;;;19.20;99.90;;;;;;5021410;28;20412;-48
2022/06/27 10:33:23;;;;;;;11.80;10.15;;;19.30;99.90;;;;;;5006965;28;20301;-50
2022/06/27 10:35:55;;;;;;;14.82;10.85;;;19.30;99.90;;;;;;5002824;28;20112;-49
2022/06/27 10:38:27;;;;;;;12.05;10.40;;;19.30;99.90;;;;;;5009715;28;20022;-49
2022/06/27 10:40:54;;;;;;;10.95;9.50;;;19.20;99.90;;;;;;5018879;28;20026;-49
2022/06/27 10:43:54;;;;;;;12.80;10.32;;;19.20;99.90;;;;;;5020956;28;20379;-50
2022/06/27 10:46:19;;;;;;;13.60;9.85;;;19.20;99.90;;;;;;4988398;28;20029;-50
2022/06/27 10:48:45;;;;;;;14.20;10.25;;;19.20;99.90;;;;;;5021045;28;20036;-49
2022/06/27 10:51:27;;;;;;;12.25;10.07;;;19.20;99.90;;;;;;5020192;28;20053;-51
2022/06/27 10:54:05;;;;;;;10.85;8.13;;;19.20;99.90;;;;;;5015732;28;20476;-49
2022/06/27 10:56:31;;;;;;;10.98;9.70;;;19.20;99.90;;;;;;5022102;28;20393;-51
2022/06/27 10:58:57;;;;;;;11.40;9.68;;;19.40;99.90;;;;;;5018706;28;20026;-48
2022/06/27 11:01:23;;;;;;;12.38;11.00;;;19.50;99.90;;;;;;5023867;28;20022;-48
2022/06/27 11:03:51;;;;;;;11.38;9.43;;;19.40;99.90;;;;;;5017167;28;20033;-51
2022/06/27 11:06:17;;;;;;;13.57;11.18;;;19.40;99.90;;;;;;5006047;28;20033;-49
2022/06/27 11:08:52;;;;;;;12.80;10.80;;;19.50;99.90;;;;;;5001667;28;20080;-49
2022/06/27 11:11:23;;;;;;;11.25;10.13;;;19.50;99.90;;;;;;5005318;28;20082;-49
2022/06/27 11:13:54;;;;;;;13.77;10.48;;;19.60;99.90;;;;;;5019341;28;20029;-49
2022/06/27 11:16:32;;;;;;;11.82;9.45;;;19.60;99.90;;;;;;5020788;28;20030;-49
2022/06/27 11:19:02;;;;;;;15.68;10.65;;;19.60;99.90;;;;;;5032071;22;20045;-49
2022/06/27 11:21:37;;;;;;;11.90;10.18;;;19.60;99.90;;;;;;5039843;28;20780;-46
2022/06/27 11:24:09;;;;;;;13.25;10.88;;;19.60;99.90;;;;;;5042205;28;20051;-47
2022/06/27 11:26:37;;;;;;;13.38;10.55;;;19.50;99.90;;;;;;5045063;28;20143;-47
2022/06/27 11:31:59;;;;;;;11.43;10.00;;;19.40;99.90;;;;;;5028880;28;20037;-48
2022/06/27 11:34:26;;;;;;;10.75;9.48;;;19.40;99.90;;;;;;5031727;28;20101;-46
2022/06/27 11:36:53;;;;;;;12.85;10.52;;;19.40;99.90;;;;;;5027244;28;20480;-45
2022/06/27 11:39:23;;;;;;;13.25;11.25;;;19.40;99.90;;;;;;5030098;28;20144;-45
2022/06/27 11:41:58;;;;;;;13.63;11.10;;;19.40;99.90;;;;;;5032496;28;20097;-46
2022/06/27 11:44:24;;;;;;;10.63;9.50;;;19.40;99.90;;;;;;5028985;28;20106;-47
2022/06/27 11:46:51;;;;;;;14.45;11.43;;;19.50;99.90;;;;;;5032555;28;20494;-47
2022/06/27 11:49:33;;;;;;;11.98;10.13;;;19.50;99.90;;;;;;5024437;28;20053;-45
2022/06/27 11:52:04;;;;;;;13.88;9.77;;;19.40;99.90;;;;;;5030235;28;20045;-43
2022/06/27 11:54:48;;;;;;;12.52;10.77;;;19.40;99.90;;;;;;5031418;28;20029;-44
2022/06/27 11:57:29;;;;;;;13.77;10.27;;;19.40;99.90;;;;;;5016596;28;20020;-46
2022/06/27 11:59:56;;;;;;;10.88;9.48;;;19.40;99.90;;;;;;5030504;28;20083;-44
2022/06/27 12:02:29;;;;;;;12.20;9.20;;;19.40;99.90;;;;;;5032455;28;20471;-45
2022/06/27 12:05:10;;;;;;;12.52;11.15;;;19.30;99.90;;;;;;5029202;28;20084;-47
2022/06/27 12:07:58;;;;;;;10.60;9.43;;;19.20;99.90;;;;;;5032880;28;20371;-47
2022/06/27 12:10:36;;;;;;;10.25;9.25;;;19.20;99.90;;;;;;5027771;28;20457;-44
2022/06/27 12:13:11;;;;;;;11.73;9.45;;;19.10;99.90;;;;;;5030183;28;20033;-44
2022/06/27 12:15:38;;;;;;;9.77;8.77;;;19.10;99.90;;;;;;5028811;28;20014;-47
2022/06/27 12:18:06;;;;;;;9.05;7.38;;;19.10;99.90;;;;;;5029638;28;20033;-45
2022/06/27 12:20:33;;;;;;;7.90;7.10;;;19.10;99.90;;;;;;5026274;28;20042;-47
2022/06/27 12:22:58;;;;;;;9.85;6.72;;;19.00;99.90;;;;;;5031264;28;20391;-45
2022/06/27 12:25:24;;;;;;;9.25;6.88;;;19.10;99.90;;;;;;5028147;28;20109;-44
2022/06/27 12:27:50;;;;;;;6.40;5.80;;;19.10;99.90;;;;;;5030300;28;20480;-45
2022/06/27 12:30:17;;;;;;;7.93;6.35;;;19.20;99.90;;;;;;5027713;28;20026;-44
2022/06/27 12:32:44;;;;;;;7.32;6.57;;;19.30;99.90;;;;;;5028790;28;20017;-44
2022/06/27 12:35:09;;;;;;;8.00;7.15;;;19.30;99.90;;;;;;5028367;28;20028;-48
2022/06/27 12:37:36;;;;;;;8.55;6.68;;;19.30;99.90;;;;;;5024957;28;20018;-47
2022/06/27 12:40:07;;;;;;;7.60;6.88;;;19.40;99.90;;;;;;5031176;28;20029;-45
2022/06/27 12:42:33;;;;;;;8.90;7.25;;;19.30;99.90;;;;;;5025410;28;20404;-44
2022/06/27 12:44:59;;;;;;;9.52;8.05;;;19.30;99.90;;;;;;5030078;28;20030;-44
2022/06/27 12:47:25;;;;;;;9.57;8.25;;;19.30;99.90;;;;;;5018366;28;20017;-44
2022/06/27 12:49:50;;;;;;;9.35;8.38;;;19.10;99.90;;;;;;5031271;28;20041;-47
2022/06/27 12:52:16;;;;;;;11.65;8.80;;;19.10;99.90;;;;;;5031032;28;20029;-46
2022/06/27 12:54:45;;;;;;;10.68;9.63;;;19.10;99.90;;;;;;5029028;28;20053;-45
2022/06/27 12:57:14;;;;;;;8.48;7.65;;;19.10;99.90;;;;;;5025896;28;20052;-45